Marseilles, IL

12:13 AM CST on December 20, 2014 (GMT -0600)
Morris | Change Station
CLOSE
Current Station
Airport
Location: Morris,
Elevation: 584 ft
Nearby Weather Stations

Elev 584 ft 41.43 °N, 88.42 °W | Updated 18 minutes ago

Overcast
Overcast
26 °F
Feels Like 21 °F
N
4
Wind Variable Wind from SSW

Today
High -- | Low -- °F
--% Chance of Precip.
Yesterday
High -- | Low -- °F
Precip. -- in
7:16 AM 4:28 PM
Waning Crescent, 4% visible
Pressure 30.27 in
Visibility 7.0 miles
Clouds Scattered Clouds 2400 ft
Overcast 7500 ft
Windchill 21 °F
Dew Point 24 °F
Humidity 96%
Rainfall 0.00 in
Snow Depth Not available.
UV 0 out of 12
Pollen .10 out of 12
Air Quality Not available.
Flu Activity Not available.
METAR KC09 200555Z AUTO 21003KT 7SM SCT024 OVC075 M04/M04 A3027 RMK AO2 T10361042 11005 21038 400071090

More Conditions Fewer Conditions

Pressure 30.27 in
Visibility 7.0 miles
Clouds Scattered Clouds 2400 ft
Overcast 7500 ft
Windchill 21 °F
Dew Point 24 °F
Humidity 96%
Rainfall 0.00 in
Snow Depth Not available.
UV 0 out of 12
Pollen .10 out of 12
Air Quality Not available.
Flu Activity Not available.
METAR KC09 200555Z AUTO 21003KT 7SM SCT024 OVC075 M04/M04 A3027 RMK AO2 T10361042 11005 21038 400071090

More Conditions Fewer Conditions

10-Day Weather Forecast

Almanac

Astronomy

Dec. 20, 2014 Rise Set
Actual Time
Civil Twilight
Nautical Twilight
Astronomical Twilight
Moon
Length of Visible Light
Length of Day
Tomorrow will be .
, % of the Moon is Illuminated

Today's Extremes

State Highs State Lows

Community

WunderPhotos

Upload Photos

1,779,144 photos uploaded!

WunderBlogs® & News

Nearby

Air Quality

  Air Quality AQ Index Pollutant
Not available.

Snow Depth

Station Depth Elevation

Earthquake Activity

City Distance Mag. Time & Date
Minimum magnitude displayed is 2.5.

Coastal Water Temperatures

Place Temperature

Nearby Weather Stations